sensor_id;sensor_type;location;lat;lon;timestamp;temperature;humidity
46366;DHT22;32073;49.166;8.076;2022-10-03T00:00:25;14.60;70.50
46366;DHT22;32073;49.166;8.076;2022-10-03T00:13:41;14.60;70.50
46366;DHT22;32073;49.166;8.076;2022-10-03T00:22:18;14.70;70.60
46366;DHT22;32073;49.166;8.076;2022-10-03T00:26:48;14.70;70.60
46366;DHT22;32073;49.166;8.076;2022-10-03T00:31:20;14.60;70.60
46366;DHT22;32073;49.166;8.076;2022-10-03T00:35:39;14.60;70.50
46366;DHT22;32073;49.166;8.076;2022-10-03T01:16:08;14.40;70.20
46366;DHT22;32073;49.166;8.076;2022-10-03T01:29:05;14.40;70.80
46366;DHT22;32073;49.166;8.076;2022-10-03T01:33:56;14.50;71.10
46366;DHT22;32073;49.166;8.076;2022-10-03T01:46:54;14.60;71.40
46366;DHT22;32073;49.166;8.076;2022-10-03T01:51:17;14.70;71.40
46366;DHT22;32073;49.166;8.076;2022-10-03T01:55:29;14.70;71.40
46366;DHT22;32073;49.166;8.076;2022-10-03T02:00:01;14.80;71.30
46366;DHT22;32073;49.166;8.076;2022-10-03T02:09:11;14.80;71.10
46366;DHT22;32073;49.166;8.076;2022-10-03T02:13:27;14.80;70.90
46366;DHT22;32073;49.166;8.076;2022-10-03T02:17:55;14.80;70.70
46366;DHT22;32073;49.166;8.076;2022-10-03T02:21:58;14.70;70.50
46366;DHT22;32073;49.166;8.076;2022-10-03T02:35:50;14.60;70.40
46366;DHT22;32073;49.166;8.076;2022-10-03T03:12:30;14.20;70.70
46366;DHT22;32073;49.166;8.076;2022-10-03T03:21:25;14.10;70.40
46366;DHT22;32073;49.166;8.076;2022-10-03T03:34:25;14.00;69.90
46366;DHT22;32073;49.166;8.076;2022-10-03T03:39:15;13.90;69.90
46366;DHT22;32073;49.166;8.076;2022-10-03T03:56:58;13.70;69.40
46366;DHT22;32073;49.166;8.076;2022-10-03T04:01:25;13.60;69.40
46366;DHT22;32073;49.166;8.076;2022-10-03T04:19:39;13.30;69.20
46366;DHT22;32073;49.166;8.076;2022-10-03T04:29:09;13.20;69.10
46366;DHT22;32073;49.166;8.076;2022-10-03T04:37:59;13.10;69.40
46366;DHT22;32073;49.166;8.076;2022-10-03T04:46:57;13.00;69.40
46366;DHT22;32073;49.166;8.076;2022-10-03T04:51:20;13.00;69.40
46366;DHT22;32073;49.166;8.076;2022-10-03T04:55:30;13.00;69.60
46366;DHT22;32073;49.166;8.076;2022-10-03T04:59:52;12.90;69.50
46366;DHT22;32073;49.166;8.076;2022-10-03T05:04:19;12.90;69.30
46366;DHT22;32073;49.166;8.076;2022-10-03T05:09:35;12.90;69.20
46366;DHT22;32073;49.166;8.076;2022-10-03T05:18:33;12.80;69.30
46366;DHT22;32073;49.166;8.076;2022-10-03T05:22:57;12.80;69.40
46366;DHT22;32073;49.166;8.076;2022-10-03T05:36:05;12.80;69.40
46366;DHT22;32073;49.166;8.076;2022-10-03T05:40:17;12.70;69.40
46366;DHT22;32073;49.166;8.076;2022-10-03T05:44:25;12.70;69.50
46366;DHT22;32073;49.166;8.076;2022-10-03T05:48:51;12.70;69.50
46366;DHT22;32073;49.166;8.076;2022-10-03T05:53:07;12.70;69.60
46366;DHT22;32073;49.166;8.076;2022-10-03T06:11:58;12.70;70.20
46366;DHT22;32073;49.166;8.076;2022-10-03T06:15:59;12.80;70.40
46366;DHT22;32073;49.166;8.076;2022-10-03T06:42:41;13.20;71.10
46366;DHT22;32073;49.166;8.076;2022-10-03T06:51:25;13.30;71.10
46366;DHT22;32073;49.166;8.076;2022-10-03T07:23:19;14.00;72.30
46366;DHT22;32073;49.166;8.076;2022-10-03T07:27:44;14.10;72.40
46366;DHT22;32073;49.166;8.076;2022-10-03T07:41:40;14.30;72.40
46366;DHT22;32073;49.166;8.076;2022-10-03T07:56:04;14.60;72.10
46366;DHT22;32073;49.166;8.076;2022-10-03T08:01:39;14.70;72.10
46366;DHT22;32073;49.166;8.076;2022-10-03T08:09:50;14.80;71.60
46366;DHT22;32073;49.166;8.076;2022-10-03T08:23:56;15.00;71.90
46366;DHT22;32073;49.166;8.076;2022-10-03T08:33:33;15.20;71.90
46366;DHT22;32073;49.166;8.076;2022-10-03T08:56:24;15.90;71.10
46366;DHT22;32073;49.166;8.076;2022-10-03T09:01:15;16.00;71.00
46366;DHT22;32073;49.166;8.076;2022-10-03T09:54:30;17.10;68.60
46366;DHT22;32073;49.166;8.076;2022-10-03T10:21:36;17.60;67.30
46366;DHT22;32073;49.166;8.076;2022-10-03T10:26:03;17.60;66.00
46366;DHT22;32073;49.166;8.076;2022-10-03T10:30:25;17.60;66.50
46366;DHT22;32073;49.166;8.076;2022-10-03T10:53:58;18.30;64.70
46366;DHT22;32073;49.166;8.076;2022-10-03T11:02:53;18.40;63.70
46366;DHT22;32073;49.166;8.076;2022-10-03T11:08:01;18.40;63.80
46366;DHT22;32073;49.166;8.076;2022-10-03T11:26:55;18.80;63.50
46366;DHT22;32073;49.166;8.076;2022-10-03T11:45:03;19.20;62.10
46366;DHT22;32073;49.166;8.076;2022-10-03T11:53:43;19.10;61.40
46366;DHT22;32073;49.166;8.076;2022-10-03T12:07:06;19.20;61.20
46366;DHT22;32073;49.166;8.076;2022-10-03T12:11:36;19.20;61.40
46366;DHT22;32073;49.166;8.076;2022-10-03T12:15:51;19.30;61.50
46366;DHT22;32073;49.166;8.076;2022-10-03T12:20:14;19.50;61.10
46366;DHT22;32073;49.166;8.076;2022-10-03T12:24:33;19.60;60.80
46366;DHT22;32073;49.166;8.076;2022-10-03T12:28:39;19.80;60.20
46366;DHT22;32073;49.166;8.076;2022-10-03T12:32:50;19.80;60.50
46366;DHT22;32073;49.166;8.076;2022-10-03T12:46:20;19.90;58.70
46366;DHT22;32073;49.166;8.076;2022-10-03T12:50:58;19.80;59.20
46366;DHT22;32073;49.166;8.076;2022-10-03T12:55:32;19.70;58.80
46366;DHT22;32073;49.166;8.076;2022-10-03T12:59:42;19.60;58.90
46366;DHT22;32073;49.166;8.076;2022-10-03T13:12:36;19.80;58.40
46366;DHT22;32073;49.166;8.076;2022-10-03T13:17:16;19.90;57.90
46366;DHT22;32073;49.166;8.076;2022-10-03T13:22:03;19.90;57.60
46366;DHT22;32073;49.166;8.076;2022-10-03T13:30:57;19.90;57.80
46366;DHT22;32073;49.166;8.076;2022-10-03T13:39:50;20.00;58.60
46366;DHT22;32073;49.166;8.076;2022-10-03T13:48:18;20.00;56.90
46366;DHT22;32073;49.166;8.076;2022-10-03T13:52:41;20.00;56.40
46366;DHT22;32073;49.166;8.076;2022-10-03T13:56:50;20.10;57.00
46366;DHT22;32073;49.166;8.076;2022-10-03T14:01:13;20.10;57.30
46366;DHT22;32073;49.166;8.076;2022-10-03T14:05:43;20.10;56.20
46366;DHT22;32073;49.166;8.076;2022-10-03T14:10:11;20.20;56.30
46366;DHT22;32073;49.166;8.076;2022-10-03T14:14:51;20.20;56.50
46366;DHT22;32073;49.166;8.076;2022-10-03T14:19:45;20.20;56.30
46366;DHT22;32073;49.166;8.076;2022-10-03T14:28:45;20.30;55.20
46366;DHT22;32073;49.166;8.076;2022-10-03T14:37:39;20.20;55.60
46366;DHT22;32073;49.166;8.076;2022-10-03T14:45:58;20.20;56.70
46366;DHT22;32073;49.166;8.076;2022-10-03T14:50:00;20.10;55.90
46366;DHT22;32073;49.166;8.076;2022-10-03T14:54:17;20.30;56.10
46366;DHT22;32073;49.166;8.076;2022-10-03T14:58:27;20.20;55.20
46366;DHT22;32073;49.166;8.076;2022-10-03T15:02:37;20.20;55.10
46366;DHT22;32073;49.166;8.076;2022-10-03T15:10:45;20.10;55.40
46366;DHT22;32073;49.166;8.076;2022-10-03T15:14:55;20.10;55.20
46366;DHT22;32073;49.166;8.076;2022-10-03T15:19:18;20.10;54.40
46366;DHT22;32073;49.166;8.076;2022-10-03T15:23:29;19.90;54.60
46366;DHT22;32073;49.166;8.076;2022-10-03T15:27:33;19.70;54.30
46366;DHT22;32073;49.166;8.076;2022-10-03T15:31:39;19.60;55.10
46366;DHT22;32073;49.166;8.076;2022-10-03T15:35:47;19.70;54.50
46366;DHT22;32073;49.166;8.076;2022-10-03T15:39:52;19.50;55.20
46366;DHT22;32073;49.166;8.076;2022-10-03T15:48:20;19.60;55.50
46366;DHT22;32073;49.166;8.076;2022-10-03T15:52:29;19.60;55.30
46366;DHT22;32073;49.166;8.076;2022-10-03T15:56:39;19.70;55.20
46366;DHT22;32073;49.166;8.076;2022-10-03T16:00:47;19.90;54.80
46366;DHT22;32073;49.166;8.076;2022-10-03T16:04:53;19.90;54.90
46366;DHT22;32073;49.166;8.076;2022-10-03T16:08:58;20.00;54.50
46366;DHT22;32073;49.166;8.076;2022-10-03T16:13:19;20.00;54.80
46366;DHT22;32073;49.166;8.076;2022-10-03T16:18:01;20.00;54.00
46366;DHT22;32073;49.166;8.076;2022-10-03T16:26:21;19.90;54.20
46366;DHT22;32073;49.166;8.076;2022-10-03T16:30:28;19.70;53.80
46366;DHT22;32073;49.166;8.076;2022-10-03T16:34:40;19.60;53.70
46366;DHT22;32073;49.166;8.076;2022-10-03T16:38:52;19.50;53.70
46366;DHT22;32073;49.166;8.076;2022-10-03T16:43:02;19.40;54.00
46366;DHT22;32073;49.166;8.076;2022-10-03T16:47:09;19.30;53.90
46366;DHT22;32073;49.166;8.076;2022-10-03T16:51:23;19.10;54.10
46366;DHT22;32073;49.166;8.076;2022-10-03T16:59:48;18.80;54.30
46366;DHT22;32073;49.166;8.076;2022-10-03T17:08:31;18.60;54.70
46366;DHT22;32073;49.166;8.076;2022-10-03T17:12:42;18.50;54.90
46366;DHT22;32073;49.166;8.076;2022-10-03T17:16:53;18.30;55.60
46366;DHT22;32073;49.166;8.076;2022-10-03T17:21:20;18.30;55.30
46366;DHT22;32073;49.166;8.076;2022-10-03T17:25:36;18.20;55.30
46366;DHT22;32073;49.166;8.076;2022-10-03T17:30:00;18.10;55.60
46366;DHT22;32073;49.166;8.076;2022-10-03T17:34:40;18.00;55.80
46366;DHT22;32073;49.166;8.076;2022-10-03T17:39:02;17.80;55.80
46366;DHT22;32073;49.166;8.076;2022-10-03T17:43:33;17.70;55.90
46366;DHT22;32073;49.166;8.076;2022-10-03T17:51:58;17.40;56.00
46366;DHT22;32073;49.166;8.076;2022-10-03T17:56:10;17.40;56.20
46366;DHT22;32073;49.166;8.076;2022-10-03T18:04:46;17.10;56.40
46366;DHT22;32073;49.166;8.076;2022-10-03T18:08:53;17.10;56.50
46366;DHT22;32073;49.166;8.076;2022-10-03T18:12:57;16.90;56.50
46366;DHT22;32073;49.166;8.076;2022-10-03T18:17:15;16.80;56.60
46366;DHT22;32073;49.166;8.076;2022-10-03T18:30:44;16.60;57.00
46366;DHT22;32073;49.166;8.076;2022-10-03T18:39:24;16.50;57.20
46366;DHT22;32073;49.166;8.076;2022-10-03T18:43:36;16.50;56.80
46366;DHT22;32073;49.166;8.076;2022-10-03T18:47:53;16.40;57.10
46366;DHT22;32073;49.166;8.076;2022-10-03T18:52:23;16.40;57.30
46366;DHT22;32073;49.166;8.076;2022-10-03T18:56:30;16.30;57.40
46366;DHT22;32073;49.166;8.076;2022-10-03T19:00:34;16.20;57.40
46366;DHT22;32073;49.166;8.076;2022-10-03T19:09:38;16.10;57.60
46366;DHT22;32073;49.166;8.076;2022-10-03T19:13:55;16.10;57.70
46366;DHT22;32073;49.166;8.076;2022-10-03T19:18:20;16.00;57.80
46366;DHT22;32073;49.166;8.076;2022-10-03T19:22:38;16.00;57.90
46366;DHT22;32073;49.166;8.076;2022-10-03T19:26:58;15.90;57.90
46366;DHT22;32073;49.166;8.076;2022-10-03T19:31:02;15.90;58.00
46366;DHT22;32073;49.166;8.076;2022-10-03T19:35:04;15.80;58.00
46366;DHT22;32073;49.166;8.076;2022-10-03T19:39:06;15.80;58.00
46366;DHT22;32073;49.166;8.076;2022-10-03T19:43:30;15.80;58.10
46366;DHT22;32073;49.166;8.076;2022-10-03T19:47:56;15.70;58.10
46366;DHT22;32073;49.166;8.076;2022-10-03T19:56:29;15.60;58.20
46366;DHT22;32073;49.166;8.076;2022-10-03T20:00:34;15.60;58.20
46366;DHT22;32073;49.166;8.076;2022-10-03T20:04:39;15.60;58.20
46366;DHT22;32073;49.166;8.076;2022-10-03T20:09:02;15.50;58.10
46366;DHT22;32073;49.166;8.076;2022-10-03T20:13:07;15.50;58.20
46366;DHT22;32073;49.166;8.076;2022-10-03T20:17:24;15.40;58.10
46366;DHT22;32073;49.166;8.076;2022-10-03T20:21:26;15.40;58.20
46366;DHT22;32073;49.166;8.076;2022-10-03T20:25:34;15.40;58.20
46366;DHT22;32073;49.166;8.076;2022-10-03T20:34:22;15.30;58.40
46366;DHT22;32073;49.166;8.076;2022-10-03T20:38:36;15.20;58.30
46366;DHT22;32073;49.166;8.076;2022-10-03T20:42:43;15.20;58.40
46366;DHT22;32073;49.166;8.076;2022-10-03T20:46:51;15.20;58.40
46366;DHT22;32073;49.166;8.076;2022-10-03T20:51:01;15.10;58.40
46366;DHT22;32073;49.166;8.076;2022-10-03T20:55:04;15.10;58.50
46366;DHT22;32073;49.166;8.076;2022-10-03T20:59:10;15.10;58.60
46366;DHT22;32073;49.166;8.076;2022-10-03T21:03:36;15.00;58.60
46366;DHT22;32073;49.166;8.076;2022-10-03T21:07:46;15.00;58.80
46366;DHT22;32073;49.166;8.076;2022-10-03T21:11:50;15.00;58.80
46366;DHT22;32073;49.166;8.076;2022-10-03T21:15:54;15.00;58.80
46366;DHT22;32073;49.166;8.076;2022-10-03T21:20:04;15.00;58.80
46366;DHT22;32073;49.166;8.076;2022-10-03T21:24:18;14.90;58.80
46366;DHT22;32073;49.166;8.076;2022-10-03T21:28:28;14.90;58.90
46366;DHT22;32073;49.166;8.076;2022-10-03T21:32:49;14.90;58.90
46366;DHT22;32073;49.166;8.076;2022-10-03T21:37:09;14.80;58.90
46366;DHT22;32073;49.166;8.076;2022-10-03T21:41:25;14.70;59.00
46366;DHT22;32073;49.166;8.076;2022-10-03T21:45:56;14.70;59.00
46366;DHT22;32073;49.166;8.076;2022-10-03T21:50:09;14.70;59.10
46366;DHT22;32073;49.166;8.076;2022-10-03T21:54:35;14.70;59.00
46366;DHT22;32073;49.166;8.076;2022-10-03T21:58:50;14.60;59.00
46366;DHT22;32073;49.166;8.076;2022-10-03T22:07:37;14.60;59.20
46366;DHT22;32073;49.166;8.076;2022-10-03T22:11:47;14.60;59.30
46366;DHT22;32073;49.166;8.076;2022-10-03T22:20:22;14.50;59.30
46366;DHT22;32073;49.166;8.076;2022-10-03T22:37:26;14.40;59.60
46366;DHT22;32073;49.166;8.076;2022-10-03T22:41:29;14.30;59.50
46366;DHT22;32073;49.166;8.076;2022-10-03T22:45:34;14.30;59.60
46366;DHT22;32073;49.166;8.076;2022-10-03T22:49:40;14.30;59.70
46366;DHT22;32073;49.166;8.076;2022-10-03T22:53:46;14.30;59.70
46366;DHT22;32073;49.166;8.076;2022-10-03T22:57:51;14.30;59.80
46366;DHT22;32073;49.166;8.076;2022-10-03T23:01:55;14.30;59.70
46366;DHT22;32073;49.166;8.076;2022-10-03T23:10:50;14.20;59.80
46366;DHT22;32073;49.166;8.076;2022-10-03T23:14:55;14.20;60.00
46366;DHT22;32073;49.166;8.076;2022-10-03T23:23:52;14.10;60.00
46366;DHT22;32073;49.166;8.076;2022-10-03T23:29:18;14.10;60.10
46366;DHT22;32073;49.166;8.076;2022-10-03T23:32:55;14.10;60.10
46366;DHT22;32073;49.166;8.076;2022-10-03T23:37:08;14.00;60.00
46366;DHT22;32073;49.166;8.076;2022-10-03T23:41:31;14.00;60.00
46366;DHT22;32073;49.166;8.076;2022-10-03T23:45:42;14.00;60.30
46366;DHT22;32073;49.166;8.076;2022-10-03T23:49:45;14.00;60.10
46366;DHT22;32073;49.166;8.076;2022-10-03T23:53:52;14.00;60.30
46366;DHT22;32073;49.166;8.076;2022-10-03T23:57:54;13.90;60.40
